Time;durP1;ratioP1;P1;durP2;ratioP2;P2;SDS_P1;SDS_P2;PMS_P1;PMS_P2;Temp;Humidity;BMP_temperature;BMP_pressure;BME280_temperature;BME280_humidity;BME280_pressure;Samples;Min_cycle;Max_cycle;Signal;HPM_P1;HPM_P2
2023/08/17 00:00:55;;;;;;;7.25;4.45;;;;;;;20.33;100.00;98942.31;5028758;28;20036;-75
2023/08/17 00:03:21;;;;;;;6.13;3.70;;;;;;;20.29;100.00;98952.19;5023355;28;20014;-75
2023/08/17 00:05:46;;;;;;;6.25;3.88;;;;;;;20.22;100.00;98935.09;5029616;28;20056;-75
2023/08/17 00:08:11;;;;;;;5.63;3.80;;;;;;;20.18;100.00;98931.22;5031894;28;20025;-75
2023/08/17 00:10:38;;;;;;;8.00;3.40;;;;;;;20.23;100.00;98947.75;5028737;28;20044;-75
2023/08/17 00:13:04;;;;;;;7.32;3.72;;;;;;;20.26;100.00;98949.13;5028682;28;20025;-75
2023/08/17 00:15:29;;;;;;;6.15;3.40;;;;;;;20.28;100.00;98950.53;5030344;28;22383;-75
2023/08/17 00:17:54;;;;;;;6.40;3.47;;;;;;;20.27;100.00;98943.38;5031563;28;20549;-75
2023/08/17 00:20:20;;;;;;;6.25;3.35;;;;;;;20.17;100.00;98926.81;5026508;28;20047;-75
2023/08/17 00:22:45;;;;;;;7.72;4.25;;;;;;;20.18;100.00;98928.47;5031618;28;20056;-75
2023/08/17 00:25:11;;;;;;;8.23;3.90;;;;;;;20.19;100.00;98935.63;5030329;28;20029;-75
2023/08/17 00:27:36;;;;;;;5.07;3.72;;;;;;;20.05;100.00;98929.75;5031640;28;20025;-75
2023/08/17 00:30:01;;;;;;;9.35;4.13;;;;;;;19.97;100.00;98943.13;5013250;28;20391;-75
2023/08/17 00:32:27;;;;;;;10.63;4.85;;;;;;;19.83;100.00;98951.81;5028005;28;20024;-78
2023/08/17 00:34:52;;;;;;;7.70;4.57;;;;;;;19.66;100.00;98946.41;5013423;28;20068;-79
2023/08/17 00:37:17;;;;;;;8.07;4.35;;;;;;;19.63;100.00;98954.31;5013894;28;20395;-76
2023/08/17 00:39:42;;;;;;;10.75;5.80;;;;;;;19.58;100.00;98968.81;5033436;28;20034;-76
2023/08/17 00:42:08;;;;;;;10.38;5.15;;;;;;;19.44;100.00;98946.44;5032856;28;20108;-76
2023/08/17 00:44:33;;;;;;;11.75;6.25;;;;;;;19.48;100.00;98958.53;5035047;28;20112;-76
2023/08/17 00:46:59;;;;;;;9.60;5.80;;;;;;;19.40;100.00;98956.25;5031496;28;20037;-76
2023/08/17 00:49:24;;;;;;;10.15;5.78;;;;;;;19.44;100.00;98968.38;5032056;28;20033;-77
2023/08/17 00:51:50;;;;;;;10.57;5.53;;;;;;;19.36;100.00;98943.31;5016892;28;20056;-76
2023/08/17 00:54:23;;;;;;;9.27;5.95;;;;;;;19.44;100.00;98968.38;5034317;28;20120;-76
2023/08/17 00:56:48;;;;;;;8.68;5.35;;;;;;;19.52;100.00;98971.75;5015688;28;20502;-76
2023/08/17 00:59:13;;;;;;;7.70;5.53;;;;;;;19.51;100.00;98967.34;5034842;28;20075;-76
2023/08/17 01:01:39;;;;;;;8.85;5.47;;;;;;;19.55;100.00;98957.53;5030138;28;20030;-76
2023/08/17 01:04:04;;;;;;;9.52;5.63;;;;;;;19.62;100.00;98963.63;5033177;28;20828;-76
2023/08/17 01:06:30;;;;;;;6.38;4.63;;;;;;;19.65;100.00;98966.69;5016951;28;20029;-76
2023/08/17 01:08:55;;;;;;;7.55;4.88;;;;;;;19.68;100.00;98966.19;5026034;28;20075;-77
2023/08/17 01:11:26;;;;;;;8.77;5.10;;;;;;;19.78;100.00;98970.97;5034782;28;20053;-77
2023/08/17 01:14:01;;;;;;;9.68;5.60;;;;;;;19.82;100.00;98980.34;5034447;28;20044;-77
2023/08/17 01:16:31;;;;;;;9.48;5.05;;;;;;;19.86;100.00;98958.69;5034091;28;20022;-77
2023/08/17 01:19:00;;;;;;;8.85;4.93;;;;;;;19.95;100.00;98957.13;5034479;28;20052;-77
2023/08/17 01:21:35;;;;;;;15.98;5.53;;;;;;;19.89;100.00;98960.91;5025598;28;20100;-78
2023/08/17 01:24:03;;;;;;;13.13;5.03;;;;;;;19.89;100.00;98961.75;5032551;28;20087;-76
2023/08/17 01:26:28;;;;;;;10.73;5.38;;;;;;;19.83;100.00;98962.78;5016742;28;20386;-77
2023/08/17 01:28:54;;;;;;;8.43;4.88;;;;;;;19.90;100.00;98968.06;5032391;28;20029;-76
2023/08/17 01:31:45;;;;;;;8.98;5.10;;;;;;;19.86;100.00;98965.00;5025603;28;20032;-77
2023/08/17 01:34:18;;;;;;;8.70;5.25;;;;;;;19.98;100.00;98964.00;5008141;28;20454;-77
2023/08/17 01:36:51;;;;;;;6.68;4.50;;;;;;;20.02;100.00;98952.25;5033805;28;20029;-77
2023/08/17 01:39:17;;;;;;;9.98;5.30;;;;;;;20.07;100.00;98954.22;5016153;28;20395;-77
2023/08/17 01:41:45;;;;;;;7.28;4.80;;;;;;;20.10;100.00;98950.94;5034652;28;20030;-76
2023/08/17 01:44:10;;;;;;;8.60;4.95;;;;;;;20.03;100.00;98928.34;5048257;28;20110;-75
2023/08/17 01:46:36;;;;;;;8.00;4.63;;;;;;;19.97;100.00;98927.47;5022740;28;20429;-75
2023/08/17 01:49:01;;;;;;;9.93;4.88;;;;;;;20.04;100.00;98940.97;5035640;28;20036;-76
2023/08/17 01:51:27;;;;;;;8.63;4.63;;;;;;;20.04;100.00;98938.22;5009338;28;20612;-76
2023/08/17 01:53:52;;;;;;;6.88;4.35;;;;;;;20.14;100.00;98928.16;5029035;28;20438;-75
2023/08/17 01:56:18;;;;;;;7.50;4.53;;;;;;;20.16;100.00;98919.66;5033834;28;20441;-75
2023/08/17 01:58:44;;;;;;;9.20;4.07;;;;;;;20.22;100.00;98918.59;5034397;28;20025;-75
2023/08/17 02:01:09;;;;;;;7.03;4.03;;;;;;;20.27;100.00;98921.38;5033423;28;20108;-76
2023/08/17 02:03:35;;;;;;;8.88;4.40;;;;;;;20.32;100.00;98928.84;5017084;28;20056;-76
2023/08/17 02:06:00;;;;;;;8.40;4.70;;;;;;;20.22;100.00;98921.34;5032618;28;20093;-76
2023/08/17 02:08:26;;;;;;;8.18;5.30;;;;;;;20.14;100.00;98921.84;5016626;28;20025;-76
2023/08/17 02:10:52;;;;;;;7.90;4.90;;;;;;;20.18;100.00;98922.97;5032367;28;20491;-76
2023/08/17 02:13:18;;;;;;;9.60;5.05;;;;;;;20.19;100.00;98927.38;5033652;28;20021;-78
2023/08/17 02:15:43;;;;;;;9.40;4.88;;;;;;;20.00;100.00;98901.41;5015238;28;20029;-78
2023/08/17 02:18:08;;;;;;;6.90;4.60;;;;;;;20.05;100.00;98924.25;5007533;28;20540;-78
2023/08/17 02:20:34;;;;;;;9.57;4.22;;;;;;;20.05;100.00;98912.44;5032488;28;20033;-78
2023/08/17 02:23:00;;;;;;;9.23;4.70;;;;;;;20.20;100.00;98920.81;5023242;28;20031;-76
2023/08/17 02:25:26;;;;;;;8.18;4.53;;;;;;;20.10;100.00;98898.75;5032605;28;20013;-76
2023/08/17 02:27:51;;;;;;;7.72;4.57;;;;;;;20.17;100.00;98912.25;5016790;28;20057;-76
2023/08/17 02:30:17;;;;;;;10.10;5.65;;;;;;;20.20;100.00;98917.19;5031790;28;20029;-76
2023/08/17 02:32:42;;;;;;;8.75;5.15;;;;;;;20.10;100.00;98891.34;5019552;28;20572;-76
2023/08/17 02:35:08;;;;;;;10.70;5.30;;;;;;;20.18;100.00;98911.16;5032658;28;20033;-76
2023/08/17 02:37:33;;;;;;;9.10;5.68;;;;;;;20.08;100.00;98892.69;5014933;28;20116;-76
2023/08/17 02:39:58;;;;;;;10.00;5.72;;;;;;;20.15;100.00;98898.78;5036699;28;20059;-76
2023/08/17 02:42:24;;;;;;;13.20;5.75;;;;;;;20.04;100.00;98902.53;5030871;28;20031;-78
2023/08/17 02:44:49;;;;;;;12.95;6.80;;;;;;;19.91;100.00;98877.19;5031536;28;20025;-75
2023/08/17 02:47:14;;;;;;;9.93;6.50;;;;;;;20.01;100.00;98886.59;5024441;28;20033;-76
2023/08/17 02:49:39;;;;;;;12.93;6.25;;;;;;;20.02;100.00;98889.06;5015343;28;20049;-77
2023/08/17 02:52:05;;;;;;;10.75;5.93;;;;;;;20.02;100.00;98880.00;5025636;28;20018;-76
2023/08/17 02:54:31;;;;;;;12.60;6.28;;;;;;;20.02;100.00;98882.75;5014642;28;20025;-77
2023/08/17 02:56:57;;;;;;;14.35;6.85;;;;;;;19.97;100.00;98863.50;5014498;28;20029;-77
2023/08/17 02:59:22;;;;;;;16.40;6.70;;;;;;;20.04;100.00;98880.56;5031687;28;20027;-78
2023/08/17 03:01:47;;;;;;;11.35;6.70;;;;;;;20.04;100.00;98880.56;5023113;28;20061;-78
2023/08/17 03:04:13;;;;;;;13.85;8.30;;;;;;;20.10;100.00;98880.34;5024143;28;20032;-78
2023/08/17 03:06:38;;;;;;;18.85;8.73;;;;;;;20.06;100.00;98883.88;5032550;28;20467;-78
2023/08/17 03:09:04;;;;;;;14.68;8.52;;;;;;;20.04;100.00;98877.81;5032555;28;20033;-78
2023/08/17 03:11:29;;;;;;;17.38;8.10;;;;;;;19.94;100.00;98873.09;5027274;28;20021;-78
2023/08/17 03:13:59;;;;;;;11.60;8.95;;;;;;;20.04;100.00;98883.31;5025382;28;20029;-75
2023/08/17 03:16:25;;;;;;;18.92;8.73;;;;;;;20.10;100.00;98887.75;5040162;28;20081;-82
2023/08/17 03:18:51;;;;;;;14.95;9.30;;;;;;;19.91;100.00;98863.47;5032827;28;20036;-90
2023/08/17 03:21:17;;;;;;;18.95;9.15;;;;;;;19.96;100.00;98881.06;5030422;28;20017;-85
2023/08/17 03:23:43;;;;;;;19.10;10.05;;;;;;;19.97;100.00;98889.03;5029284;28;20042;-86
2023/08/17 03:26:08;;;;;;;20.95;10.65;;;;;;;19.97;100.00;98882.72;5022829;28;20029;-85
2023/08/17 03:28:33;;;;;;;24.70;11.60;;;;;;;19.95;100.00;98882.16;5021655;28;20343;-85
2023/08/17 03:30:59;;;;;;;23.42;11.40;;;;;;;19.93;100.00;98874.16;5035944;28;20033;-86
2023/08/17 03:33:24;;;;;;;23.27;11.30;;;;;;;19.91;100.00;98868.94;5042298;28;20037;-85
2023/08/17 03:35:49;;;;;;;26.02;10.55;;;;;;;19.91;100.00;98871.69;5007285;28;20037;-84
2023/08/17 03:38:15;;;;;;;33.67;12.00;;;;;;;19.84;100.00;98870.25;5018065;28;20051;-86
2023/08/17 03:40:40;;;;;;;27.13;11.90;;;;;;;19.94;100.00;98878.59;5017138;28;20604;-85
2023/08/17 03:43:05;;;;;;;28.77;12.45;;;;;;;19.92;100.00;98889.00;5017455;28;20029;-82
2023/08/17 03:45:31;;;;;;;25.30;12.60;;;;;;;19.78;100.00;98885.00;5016507;28;20022;-83
2023/08/17 03:47:56;;;;;;;23.25;11.80;;;;;;;19.89;100.00;98893.09;5021167;28;21829;-84
2023/08/17 03:50:22;;;;;;;26.73;11.60;;;;;;;19.86;100.00;98890.88;5012159;28;20482;-82
2023/08/17 03:52:47;;;;;;;26.58;12.45;;;;;;;19.85;100.00;98896.63;5013595;28;20021;-79
2023/08/17 03:55:12;;;;;;;24.52;11.93;;;;;;;19.72;100.00;98875.91;5010995;28;20180;-73
2023/08/17 03:57:38;;;;;;;21.00;11.23;;;;;;;19.89;100.00;98900.50;5030436;28;20479;-74
2023/08/17 04:00:05;;;;;;;25.75;11.07;;;;;;;19.76;100.00;98890.78;5026072;28;20365;-74
2023/08/17 04:02:31;;;;;;;21.60;11.82;;;;;;;19.87;100.00;98899.94;5020562;28;20028;-75
2023/08/17 04:04:56;;;;;;;27.63;11.45;;;;;;;19.96;100.00;98897.53;5011951;28;20112;-75
2023/08/17 04:07:22;;;;;;;23.63;10.63;;;;;;;20.06;100.00;98914.09;5031360;28;20433;-76
2023/08/17 04:09:47;;;;;;;16.27;10.45;;;;;;;20.01;100.00;98900.31;5012358;28;20040;-75
2023/08/17 04:12:12;;;;;;;18.70;10.57;;;;;;;20.06;100.00;98909.41;5029794;28;20082;-75
2023/08/17 04:14:38;;;;;;;19.83;10.18;;;;;;;20.17;100.00;98904.81;5035609;28;20052;-75
2023/08/17 04:17:03;;;;;;;15.88;9.80;;;;;;;20.13;100.00;98903.72;5016236;28;20065;-78
2023/08/17 04:19:28;;;;;;;22.10;11.65;;;;;;;20.15;100.00;98915.28;5014160;28;20029;-76
2023/08/17 04:21:54;;;;;;;22.15;12.82;;;;;;;20.15;100.00;98918.03;5015470;28;20029;-76
2023/08/17 04:24:19;;;;;;;24.35;12.88;;;;;;;20.18;100.00;98928.47;5035594;28;20032;-76
2023/08/17 04:26:44;;;;;;;20.33;12.07;;;;;;;20.08;100.00;98917.41;5037612;28;20025;-73
2023/08/17 04:29:09;;;;;;;24.00;12.85;;;;;;;20.07;100.00;98921.25;5035312;28;20083;-74
2023/08/17 04:31:35;;;;;;;27.35;14.18;;;;;;;20.08;100.00;98920.97;5032942;28;20025;-76
2023/08/17 04:34:00;;;;;;;24.02;13.25;;;;;;;20.03;100.00;98925.59;5035407;28;20021;-78
2023/08/17 04:36:25;;;;;;;27.30;13.77;;;;;;;20.05;100.00;98929.75;5035260;28;20636;-76
2023/08/17 04:38:51;;;;;;;24.65;14.43;;;;;;;20.07;100.00;98944.06;5034364;28;20136;-78
2023/08/17 04:41:16;;;;;;;29.55;14.55;;;;;;;19.99;100.00;98933.53;5027837;28;20037;-77
2023/08/17 04:43:42;;;;;;;24.83;13.93;;;;;;;20.02;100.00;98930.28;5016681;28;20033;-78
2023/08/17 04:46:08;;;;;;;24.05;13.60;;;;;;;20.16;100.00;98946.31;5014065;28;20025;-77
2023/08/17 04:48:33;;;;;;;32.92;13.73;;;;;;;19.96;100.00;98916.75;5016486;28;20084;-72
2023/08/17 04:50:59;;;;;;;28.90;14.45;;;;;;;20.07;100.00;98932.25;5035000;28;20075;-71
2023/08/17 04:53:24;;;;;;;31.65;14.82;;;;;;;20.08;100.00;98931.13;5033711;28;20017;-76
2023/08/17 04:55:49;;;;;;;31.38;14.02;;;;;;;20.13;100.00;98939.41;5031943;28;20033;-76
2023/08/17 04:58:15;;;;;;;27.30;14.02;;;;;;;20.14;100.00;98944.63;5033385;28;20083;-76
2023/08/17 05:00:41;;;;;;;32.25;14.05;;;;;;;20.19;100.00;98945.78;5028269;28;20037;-76
2023/08/17 05:03:06;;;;;;;26.08;13.77;;;;;;;20.13;100.00;98936.66;5014341;28;20018;-76
2023/08/17 05:05:31;;;;;;;27.63;14.65;;;;;;;20.24;100.00;98941.16;5016412;28;20446;-73
2023/08/17 05:07:57;;;;;;;29.02;14.13;;;;;;;20.40;100.00;98944.00;5017062;28;20029;-77
2023/08/17 05:10:22;;;;;;;27.40;14.60;;;;;;;20.39;100.00;98950.59;5021196;28;20549;-82
2023/08/17 05:12:48;;;;;;;31.88;15.70;;;;;;;20.39;100.00;98942.38;5032982;28;20479;-73
2023/08/17 05:15:13;;;;;;;29.15;15.07;;;;;;;20.35;100.00;98942.88;5022134;28;20030;-72
2023/08/17 05:17:39;;;;;;;32.00;14.75;;;;;;;20.36;100.00;98949.22;5032442;28;20025;-73
2023/08/17 05:20:05;;;;;;;35.58;16.83;;;;;;;20.41;100.00;98948.41;5027533;28;20113;-73
2023/08/17 05:22:30;;;;;;;27.25;14.98;;;;;;;20.44;100.00;98931.41;5032754;28;20051;-73
2023/08/17 05:24:55;;;;;;;29.58;13.93;;;;;;;20.50;100.00;98927.59;5033301;28;20506;-73
2023/08/17 05:27:21;;;;;;;28.80;14.73;;;;;;;20.57;100.00;98929.06;5026548;28;20139;-70
2023/08/17 05:29:46;;;;;;;27.83;13.60;;;;;;;20.55;100.00;98927.66;5029030;28;20069;-70
2023/08/17 05:32:11;;;;;;;33.00;14.93;;;;;;;20.51;100.00;98912.75;5030122;28;20021;-70
2023/08/17 05:34:37;;;;;;;23.75;12.32;;;;;;;20.60;100.00;98913.94;5015315;28;20029;-70
2023/08/17 05:37:02;;;;;;;26.73;14.05;;;;;;;20.53;100.00;98924.31;5033753;28;20059;-75
2023/08/17 05:39:28;;;;;;;30.48;14.68;;;;;;;20.50;100.00;98920.16;5025838;28;20183;-74
2023/08/17 05:41:53;;;;;;;25.70;13.52;;;;;;;20.54;100.00;98928.72;5025484;28;20064;-77
2023/08/17 05:44:19;;;;;;;25.52;13.73;;;;;;;20.65;100.00;98933.22;5030431;28;20390;-74
2023/08/17 05:46:44;;;;;;;27.27;13.25;;;;;;;20.66;100.00;98939.53;5012660;28;20033;-73
2023/08/17 05:49:09;;;;;;;25.08;12.32;;;;;;;20.70;100.00;98940.69;5011834;28;20021;-73
2023/08/17 05:51:35;;;;;;;19.70;13.05;;;;;;;20.73;100.00;98940.97;5006973;28;20026;-72
2023/08/17 05:54:00;;;;;;;23.35;12.00;;;;;;;20.76;100.00;98926.66;5031130;28;20131;-73
2023/08/17 05:56:25;;;;;;;21.50;13.05;;;;;;;20.83;100.00;98923.69;5029360;28;20029;-72
2023/08/17 05:58:51;;;;;;;20.40;11.73;;;;;;;20.80;100.00;98910.47;5040333;28;20094;-74
2023/08/17 06:01:16;;;;;;;21.85;12.38;;;;;;;21.01;100.00;98930.63;5032277;28;20032;-75
2023/08/17 06:03:42;;;;;;;20.20;12.13;;;;;;;20.95;100.00;98937.22;5013899;28;20025;-72
2023/08/17 06:06:07;;;;;;;18.95;11.80;;;;;;;21.09;100.00;98932.88;5032025;28;20095;-77
2023/08/17 06:08:33;;;;;;;17.10;10.93;;;;;;;21.19;100.00;98921.91;5031097;28;20075;-76
2023/08/17 06:10:59;;;;;;;24.15;11.45;;;;;;;21.28;100.00;98902.13;5033566;28;20081;-74
2023/08/17 06:13:24;;;;;;;17.30;11.50;;;;;;;21.41;100.00;98907.97;5033137;28;20053;-74
2023/08/17 06:15:50;;;;;;;23.48;11.77;;;;;;;21.56;100.00;98918.19;5030058;28;20073;-71
2023/08/17 06:18:15;;;;;;;20.10;10.10;;;;;;;21.55;100.00;98905.50;5031535;28;20448;-75
2023/08/17 06:20:41;;;;;;;19.63;9.30;;;;;;;21.62;100.00;98897.81;5013254;28;20029;-78
2023/08/17 06:23:06;;;;;;;21.30;11.13;;;;;;;21.80;100.00;98913.00;5015481;28;20385;-74
2023/08/17 06:25:32;;;;;;;18.42;10.13;;;;;;;21.75;100.00;98921.25;5014774;28;20033;-74
2023/08/17 06:27:57;;;;;;;18.85;9.93;;;;;;;21.71;100.00;98917.38;5027502;28;20025;-76
2023/08/17 06:30:23;;;;;;;14.45;9.68;;;;;;;21.85;100.00;98907.50;5030178;28;21700;-74
2023/08/17 06:32:50;;;;;;;17.75;9.45;;;;;;;21.86;100.00;98902.81;5032612;28;20022;-72
2023/08/17 06:35:15;;;;;;;15.80;9.93;;;;;;;21.80;100.00;98898.41;5011852;28;20030;-78
2023/08/17 06:37:40;;;;;;;16.42;9.43;;;;;;;21.80;100.00;98912.16;5023786;28;20032;-78
2023/08/17 06:40:06;;;;;;;20.20;10.95;;;;;;;21.74;100.00;98911.31;5038801;28;20040;-79
2023/08/17 06:42:32;;;;;;;18.20;10.45;;;;;;;21.49;100.00;98900.28;5008686;28;20471;-74
2023/08/17 06:44:57;;;;;;;17.98;11.07;;;;;;;21.33;100.00;98900.22;5028854;28;20032;-76
2023/08/17 06:47:23;;;;;;;20.15;11.65;;;;;;;21.27;100.00;98912.28;5032569;28;20490;-74
2023/08/17 06:49:48;;;;;;;22.75;11.90;;;;;;;21.06;100.00;98908.63;5014062;28;20037;-78
2023/08/17 06:52:13;;;;;;;16.00;10.90;;;;;;;21.29;100.00;98914.78;5012034;28;20021;-77
2023/08/17 06:54:39;;;;;;;15.88;10.02;;;;;;;21.47;100.00;98895.03;5010267;28;20029;-77
2023/08/17 06:57:13;;;;;;;13.35;9.68;;;;;;;22.15;100.00;98911.34;5114837;27;20409;-63
2023/08/17 06:59:39;;;;;;;13.57;9.75;;;;;;;22.59;100.00;98902.47;5085007;28;20130;-63
2023/08/17 07:02:05;;;;;;;13.98;8.90;;;;;;;22.52;100.00;98905.50;5080771;28;20024;-64
2023/08/17 07:04:31;;;;;;;14.75;9.90;;;;;;;22.34;100.00;98899.75;5083114;28;20028;-63
2023/08/17 07:06:57;;;;;;;16.92;9.63;;;;;;;22.35;100.00;98909.66;5076146;28;20355;-64
2023/08/17 07:09:22;;;;;;;14.07;8.88;;;;;;;22.53;100.00;98900.81;5080551;28;20027;-64
2023/08/17 07:11:48;;;;;;;13.73;9.00;;;;;;;22.57;100.00;98901.09;5079341;28;20035;-64
2023/08/17 07:14:13;;;;;;;11.70;7.85;;;;;;;22.75;100.00;98897.75;5084461;28;20028;-63
2023/08/17 07:16:40;;;;;;;12.23;7.10;;;;;;;23.01;100.00;98895.75;5082103;28;20028;-63
2023/08/17 07:19:06;;;;;;;13.25;8.18;;;;;;;23.06;100.00;98887.44;5085353;28;20513;-63
2023/08/17 07:21:31;;;;;;;12.05;8.27;;;;;;;22.97;100.00;98889.94;5079789;28;20062;-64
2023/08/17 07:23:57;;;;;;;11.68;8.45;;;;;;;23.00;100.00;98898.78;5084225;28;20025;-64
2023/08/17 07:26:23;;;;;;;16.25;7.75;;;;;;;23.21;100.00;98891.22;5083064;28;20016;-63
2023/08/17 07:28:49;;;;;;;13.57;8.52;;;;;;;23.52;100.00;98883.56;5085475;28;20032;-63
2023/08/17 07:31:15;;;;;;;14.18;9.18;;;;;;;23.65;100.00;98885.69;5078405;28;20036;-64
2023/08/17 07:33:40;;;;;;;14.05;8.15;;;;;;;23.91;100.00;98888.28;5087068;28;20027;-64
2023/08/17 07:36:07;;;;;;;12.68;8.25;;;;;;;23.85;100.00;98890.28;5084967;28;20024;-64
2023/08/17 07:38:32;;;;;;;12.68;7.95;;;;;;;24.05;100.00;98884.59;5087721;28;20119;-64
2023/08/17 07:40:58;;;;;;;12.45;8.10;;;;;;;23.94;100.00;98884.94;5079525;22;20435;-71
2023/08/17 07:43:24;;;;;;;13.88;8.40;;;;;;;23.63;100.00;98876.84;5045756;28;20727;-75
2023/08/17 07:45:56;;;;;;;13.02;8.27;;;;;;;23.89;100.00;98882.22;5038310;28;20039;-69
2023/08/17 07:48:22;;;;;;;11.32;7.85;;;;;;;24.12;100.00;98880.66;5041777;28;20040;-75
2023/08/17 07:50:52;;;;;;;16.17;9.48;;;;;;;24.04;100.00;98884.88;5035243;28;20025;-74
2023/08/17 07:53:18;;;;;;;16.38;9.05;;;;;;;23.95;100.00;98870.84;5027267;28;20056;-73
2023/08/17 07:55:44;;;;;;;18.23;10.27;;;;;;;23.71;100.00;98876.28;5033921;28;20056;-78
2023/08/17 07:58:09;;;;;;;15.43;8.60;;;;;;;23.94;100.00;98880.25;5037707;28;20098;-74
2023/08/17 08:00:34;;;;;;;12.75;7.50;;;;;;;24.54;100.00;98855.09;5025984;28;20420;-74
2023/08/17 08:03:00;;;;;;;13.63;8.00;;;;;;;24.92;100.00;98849.66;5028124;28;20025;-76
2023/08/17 08:05:25;;;;;;;14.80;8.70;;;;;;;25.33;100.00;98862.94;5026291;28;20014;-69
2023/08/17 08:07:51;;;;;;;10.68;7.82;;;;;;;25.42;100.00;98847.31;5009568;28;20089;-69
2023/08/17 08:10:16;;;;;;;13.52;9.40;;;;;;;25.35;100.00;98853.22;5006425;28;20025;-69
2023/08/17 08:12:41;;;;;;;18.42;8.38;;;;;;;25.75;100.00;98862.06;5007182;28;20018;-69
2023/08/17 08:15:07;;;;;;;14.52;8.43;;;;;;;25.52;100.00;98860.19;5011076;28;20025;-69
2023/08/17 08:17:32;;;;;;;10.65;8.10;;;;;;;25.34;100.00;98857.13;5008509;28;20044;-69
2023/08/17 08:19:59;;;;;;;12.02;8.18;;;;;;;25.19;100.00;98862.06;5014793;28;20022;-69
2023/08/17 08:22:24;;;;;;;20.48;9.43;;;;;;;24.89;100.00;98866.88;5004576;28;20022;-69
2023/08/17 08:24:49;;;;;;;13.23;8.27;;;;;;;25.27;100.00;98859.44;5008974;28;20385;-69
2023/08/17 08:27:14;;;;;;;11.98;7.50;;;;;;;25.78;100.00;98849.50;5011767;28;20141;-69
2023/08/17 08:29:40;;;;;;;14.88;7.82;;;;;;;26.93;100.00;98850.75;5012778;28;20022;-69
2023/08/17 08:32:05;;;;;;;10.50;7.15;;;;;;;27.40;100.00;98854.19;5012468;28;20390;-69
2023/08/17 08:34:30;;;;;;;14.35;8.85;;;;;;;27.20;100.00;98847.97;5014150;28;20124;-69
2023/08/17 08:36:56;;;;;;;13.88;8.90;;;;;;;27.13;100.00;98852.28;5012371;28;20025;-69
2023/08/17 08:39:21;;;;;;;12.38;7.80;;;;;;;27.13;100.00;98849.50;5013550;28;20029;-69
2023/08/17 08:41:47;;;;;;;12.80;7.30;;;;;;;27.35;100.00;98840.41;5012964;28;20479;-69
2023/08/17 08:44:12;;;;;;;13.82;7.50;;;;;;;27.77;100.00;98841.88;5013954;28;20049;-69
2023/08/17 08:46:41;;;;;;;9.77;6.78;;;;;;;28.65;100.00;98837.69;5005650;28;20380;-69
2023/08/17 08:49:10;;;;;;;10.23;6.68;;;;;;;29.25;100.00;98825.88;5013265;28;20048;-69
2023/08/17 08:51:41;;;;;;;11.95;6.97;;;;;;;29.76;100.00;98842.97;5011986;28;20151;-69
2023/08/17 08:54:10;;;;;;;10.05;6.32;;;;;;;29.93;100.00;98848.53;5011899;28;20037;-70
2023/08/17 08:56:38;;;;;;;11.90;6.63;;;;;;;29.77;100.00;98830.69;5011605;28;20113;-69
2023/08/17 08:59:04;;;;;;;9.02;6.47;;;;;;;30.03;100.00;98847.38;5009555;28;20066;-69
2023/08/17 09:01:31;;;;;;;9.48;6.20;;;;;;;30.51;100.00;98843.47;5010888;28;20037;-69
2023/08/17 09:03:59;;;;;;;9.00;5.47;;;;;;;32.11;100.00;98848.16;5013128;28;20022;-69
2023/08/17 09:06:26;;;;;;;8.43;6.05;;;;;;;32.70;100.00;98852.59;5009879;28;20026;-69
2023/08/17 09:08:52;;;;;;;14.55;6.20;;;;;;;32.97;100.00;98837.06;5012002;28;20064;-69
2023/08/17 09:11:17;;;;;;;12.80;6.35;;;;;;;32.52;100.00;98836.00;5008756;28;20062;-69
2023/08/17 09:13:42;;;;;;;8.15;6.80;;;;;;;31.47;100.00;98837.34;5008916;28;20483;-69
2023/08/17 09:16:08;;;;;;;9.32;7.00;;;;;;;32.17;100.00;98843.13;5012068;28;20030;-69
2023/08/17 09:18:34;;;;;;;11.82;6.45;;;;;;;34.17;92.10;98820.59;5009358;28;20033;-69
2023/08/17 09:21:00;;;;;;;9.32;6.80;;;;;;;35.62;82.75;98835.78;5011695;28;20034;-69
2023/08/17 09:23:25;;;;;;;8.98;7.07;;;;;;;37.57;70.51;98830.28;5005683;28;20494;-69
2023/08/17 09:25:57;;;;;;;7.72;6.30;;;;;;;38.92;63.82;98827.28;5011664;28;20058;-69
2023/08/17 09:28:23;;;;;;;10.02;6.53;;;;;;;40.08;56.96;98829.50;5008819;28;20028;-69
2023/08/17 09:31:05;;;;;;;6.55;5.53;;;;;;;40.12;55.24;98823.84;5008292;28;20030;-70
2023/08/17 09:33:31;;;;;;;7.30;5.57;;;;;;;40.68;52.53;98823.13;5008415;28;20542;-70
2023/08/17 09:35:58;;;;;;;9.05;6.72;;;;;;;39.22;54.80;98826.25;5012703;28;20470;-72
2023/08/17 09:38:24;;;;;;;8.83;7.17;;;;;;;36.39;60.52;98834.03;5011674;28;20087;-74
2023/08/17 09:40:51;;;;;;;11.20;6.80;;;;;;;36.50;63.64;98831.41;5011908;28;20057;-74
2023/08/17 09:43:17;;;;;;;7.07;6.20;;;;;;;37.08;62.20;98825.56;5011435;28;20132;-73
2023/08/17 09:45:46;;;;;;;8.63;6.30;;;;;;;39.09;58.74;98828.59;5013081;28;20049;-74
2023/08/17 09:48:15;;;;;;;6.55;4.55;;;;;;;40.81;53.28;98822.72;5012828;28;20056;-73
2023/08/17 09:50:42;;;;;;;7.00;5.32;;;;;;;41.31;52.28;98825.50;5010729;28;20368;-74
2023/08/17 09:53:12;;;;;;;6.95;5.07;;;;;;;40.93;50.48;98816.63;5012553;28;20097;-75
2023/08/17 09:55:40;;;;;;;5.93;4.70;;;;;;;41.66;49.41;98801.03;5011541;28;20018;-74
2023/08/17 09:58:06;;;;;;;7.70;5.40;;;;;;;41.55;49.34;98801.09;5013601;28;20029;-75
2023/08/17 10:00:32;;;;;;;6.05;4.78;;;;;;;41.80;48.71;98801.78;5012193;28;20094;-75
2023/08/17 10:03:03;;;;;;;5.68;4.88;;;;;;;42.05;47.64;98795.16;5012578;28;20029;-75
2023/08/17 10:05:35;;;;;;;8.18;5.85;;;;;;;41.92;47.49;98797.69;4994989;28;20018;-74
2023/08/17 10:08:02;;;;;;;8.55;4.80;;;;;;;43.16;46.86;98796.28;5005626;28;20476;-75
2023/08/17 10:10:34;;;;;;;7.07;4.68;;;;;;;44.12;44.43;98795.06;5010336;28;20037;-75
2023/08/17 10:13:10;;;;;;;8.25;6.28;;;;;;;43.50;44.41;98785.72;5006995;28;20025;-75
2023/08/17 10:16:03;;;;;;;7.30;5.47;;;;;;;43.74;42.67;98800.91;5008413;28;20100;-74
2023/08/17 10:18:36;;;;;;;7.85;6.22;;;;;;;41.62;44.70;98801.06;5008080;28;20042;-75
2023/08/17 10:21:17;;;;;;;13.77;7.05;;;;;;;38.79;51.24;98797.66;5011445;28;20120;-74
2023/08/17 10:23:45;;;;;;;11.20;7.00;;;;;;;39.56;50.10;98775.88;5011245;28;20030;-74
2023/08/17 10:26:11;;;;;;;;;;;;;;;39.84;50.47;98789.38;5011351;28;20028;-75
2023/08/17 10:28:38;;;;;;;6.30;5.43;;;;;;;41.90;47.34;98785.91;5008100;28;20022;-75
2023/08/17 10:31:03;;;;;;;8.32;6.15;;;;;;;43.04;44.64;98786.25;5009916;28;20033;-75
2023/08/17 10:33:29;;;;;;;6.03;5.05;;;;;;;44.31;43.19;98782.19;5012840;28;20092;-75
2023/08/17 10:35:56;;;;;;;7.18;5.43;;;;;;;45.41;40.93;98784.31;5014131;28;20499;-74
2023/08/17 10:38:21;;;;;;;6.70;4.90;;;;;;;45.73;40.23;98782.81;5012189;28;20420;-75
2023/08/17 10:41:08;;;;;;;8.82;5.57;;;;;;;45.63;38.58;98781.00;5004489;28;20291;-76
2023/08/17 10:43:34;;;;;;;6.07;4.83;;;;;;;44.65;40.89;98786.09;5014719;28;20033;-75
2023/08/17 10:46:15;;;;;;;7.25;6.13;;;;;;;44.09;40.50;98781.69;5013084;28;20288;-75
2023/08/17 10:48:43;;;;;;;9.60;6.65;;;;;;;42.82;41.02;98786.47;5005761;28;20026;-74
2023/08/17 10:51:12;;;;;;;6.13;5.50;;;;;;;41.96;43.15;98786.28;5008331;28;20038;-75
2023/08/17 10:53:43;;;;;;;6.68;5.32;;;;;;;43.95;40.01;98788.38;5010999;28;20383;-75
2023/08/17 10:56:12;;;;;;;6.82;5.35;;;;;;;42.38;41.13;98788.03;5012717;28;20033;-75
2023/08/17 10:58:37;;;;;;;8.32;4.75;;;;;;;43.17;40.83;98787.34;5010606;28;20034;-75
2023/08/17 11:01:02;;;;;;;6.32;4.85;;;;;;;43.66;40.10;98770.91;5011526;28;20092;-74
2023/08/17 11:03:28;;;;;;;8.82;5.72;;;;;;;42.90;39.44;98773.78;5012766;28;20072;-80
2023/08/17 11:05:58;;;;;;;7.53;5.30;;;;;;;41.63;41.99;98773.47;5012361;28;20033;-80
2023/08/17 11:08:50;;;;;;;5.43;4.20;;;;;;;42.56;40.26;98775.72;5012338;28;20112;-79
2023/08/17 11:11:19;;;;;;;9.65;4.07;;;;;;;42.50;40.99;98780.22;5009800;28;20033;-77
2023/08/17 11:13:45;;;;;;;6.97;4.82;;;;;;;42.62;40.47;98786.22;5010753;28;20029;-79
2023/08/17 11:16:13;;;;;;;8.30;4.65;;;;;;;43.31;39.34;98775.81;5018565;28;20023;-79